createdAt,value
2023-05-15T00:01:04.285Z,3.80
2023-05-15T00:03:52.276Z,3.60
2023-05-15T00:06:39.741Z,3.80
2023-05-15T00:09:26.934Z,3.57
2023-05-15T00:12:14.159Z,3.60
2023-05-15T00:15:01.339Z,3.40
2023-05-15T00:17:48.526Z,3.63
2023-05-15T00:20:35.854Z,4.00
2023-05-15T00:23:22.978Z,3.63
2023-05-15T00:26:10.268Z,3.50
2023-05-15T00:28:57.728Z,3.60
2023-05-15T00:31:45.012Z,3.50
2023-05-15T00:34:32.263Z,3.47
2023-05-15T00:37:19.391Z,3.63
2023-05-15T00:40:09.126Z,3.57
2023-05-15T00:42:56.873Z,3.20
2023-05-15T00:45:45.523Z,3.30
2023-05-15T00:48:33.781Z,3.40
2023-05-15T00:51:20.854Z,3.50
2023-05-15T00:54:09.594Z,3.10
2023-05-15T01:42:00.278Z,3.13
2023-05-15T01:46:12.199Z,3.00
2023-05-15T01:50:15.990Z,2.77
2023-05-15T01:53:09.665Z,3.03
2023-05-15T01:55:57.891Z,2.70
2023-05-15T01:58:45.260Z,3.37
2023-05-15T02:01:39.676Z,3.33
2023-05-15T02:04:28.112Z,2.93
2023-05-15T02:07:16.674Z,2.90
2023-05-15T02:10:08.800Z,3.20
2023-05-15T02:12:57.107Z,3.07
2023-05-15T02:15:44.402Z,3.07
2023-05-15T02:18:35.840Z,2.87
2023-05-15T02:21:23.242Z,2.80
2023-05-15T02:24:10.747Z,3.10
2023-05-15T02:27:04.394Z,2.80
2023-05-15T02:30:19.707Z,3.07
2023-05-15T02:33:38.406Z,3.23
2023-05-15T02:36:32.379Z,3.17
2023-05-15T02:39:23.415Z,2.90
2023-05-15T02:42:14.857Z,3.20
2023-05-15T02:45:14.434Z,3.00
2023-05-15T02:48:40.644Z,3.23
2023-05-15T02:51:37.418Z,2.87
2023-05-15T02:54:25.477Z,3.03
2023-05-15T02:57:12.579Z,3.07
2023-05-15T02:59:59.845Z,2.90
2023-05-15T03:02:46.967Z,2.83
2023-05-15T03:05:34.157Z,3.57
2023-05-15T03:08:22.200Z,3.10
2023-05-15T03:11:09.353Z,2.93
2023-05-15T03:13:56.508Z,3.07
2023-05-15T03:16:44.105Z,3.20
2023-05-15T03:19:32.204Z,3.07
2023-05-15T03:22:37.193Z,3.00
2023-05-15T03:25:29.794Z,3.10
2023-05-15T03:28:17.521Z,3.40
2023-05-15T03:31:08.672Z,3.10
2023-05-15T03:33:55.895Z,3.03
2023-05-15T03:36:43.017Z,3.10
2023-05-15T03:39:30.200Z,3.00
2023-05-15T03:42:24.211Z,3.40
2023-05-15T03:45:18.099Z,3.13
2023-05-15T03:48:17.272Z,3.50
2023-05-15T03:51:10.081Z,3.33
2023-05-15T03:54:12.708Z,2.90
2023-05-15T03:57:22.585Z,3.07
2023-05-15T04:00:11.052Z,3.30
2023-05-15T04:02:58.300Z,3.40
2023-05-15T04:06:24.440Z,3.10
2023-05-15T04:09:11.751Z,3.70
2023-05-15T04:11:58.952Z,3.17
2023-05-15T04:14:46.030Z,3.33
2023-05-15T04:17:33.199Z,3.40
2023-05-15T04:20:22.516Z,3.70
2023-05-15T04:23:09.649Z,3.70
2023-05-15T04:25:57.089Z,3.53
2023-05-15T04:29:03.576Z,3.30
2023-05-15T04:31:51.791Z,3.40
2023-05-15T04:34:48.967Z,3.60
2023-05-15T04:37:37.226Z,3.37
2023-05-15T04:40:24.455Z,3.43
2023-05-15T04:43:11.544Z,3.37
2023-05-15T04:45:58.713Z,3.53
2023-05-15T04:48:46.096Z,3.17
2023-05-15T04:51:33.280Z,3.37
2023-05-15T04:54:21.029Z,3.60
2023-05-15T04:57:08.850Z,3.70
2023-05-15T04:59:56.136Z,3.27
2023-05-15T05:02:44.139Z,3.60
2023-05-15T05:05:31.815Z,3.40
2023-05-15T05:08:18.927Z,4.27
2023-05-15T05:11:06.037Z,3.40
2023-05-15T05:13:53.492Z,3.10
2023-05-15T05:16:41.469Z,3.10
2023-05-15T05:19:28.600Z,3.20
2023-05-15T05:22:15.727Z,3.10
2023-05-15T05:25:02.916Z,3.43
2023-05-15T05:27:50.039Z,3.47
2023-05-15T05:30:37.299Z,3.33
2023-05-15T05:33:27.428Z,3.20
2023-05-15T05:36:14.517Z,3.20
2023-05-15T05:39:01.629Z,3.37
2023-05-15T05:41:48.787Z,3.30
2023-05-15T05:44:35.984Z,3.40
2023-05-15T05:47:23.127Z,3.47
2023-05-15T05:50:13.003Z,3.50
2023-05-15T05:53:00.201Z,3.40
2023-05-15T05:55:47.836Z,3.30
2023-05-15T05:58:35.049Z,3.57
2023-05-15T06:01:22.546Z,3.50
2023-05-15T06:04:09.815Z,4.07
2023-05-15T06:07:13.621Z,3.83
2023-05-15T06:10:01.285Z,3.50
2023-05-15T06:12:48.930Z,3.70
2023-05-15T06:15:36.041Z,3.40
2023-05-15T06:18:24.521Z,4.20
2023-05-15T06:21:11.963Z,4.00
2023-05-15T06:24:00.046Z,4.10
2023-05-15T06:26:47.488Z,3.90
2023-05-15T06:29:51.079Z,4.40
2023-05-15T06:32:44.860Z,4.00
2023-05-15T06:35:31.949Z,4.23
2023-05-15T06:38:19.208Z,4.33
2023-05-15T06:41:06.420Z,4.63
2023-05-15T06:43:53.603Z,4.20
2023-05-15T06:46:40.915Z,4.77
2023-05-15T06:49:28.398Z,5.20
2023-05-15T06:52:16.198Z,4.83
2023-05-15T06:55:03.717Z,5.03
2023-05-15T06:57:50.966Z,5.60
2023-05-15T07:00:38.257Z,5.17
2023-05-15T07:03:25.815Z,5.43
2023-05-15T07:06:12.907Z,5.60
2023-05-15T07:09:01.213Z,5.30
2023-05-15T07:11:48.333Z,5.57
2023-05-15T07:14:35.457Z,6.07
2023-05-15T07:17:22.576Z,5.80
2023-05-15T07:20:10.358Z,6.40
2023-05-15T07:22:57.811Z,6.33
2023-05-15T07:25:46.089Z,10.83
2023-05-15T07:28:52.848Z,14.57
2023-05-15T07:31:41.967Z,7.17
2023-05-15T07:34:29.345Z,6.73
2023-05-15T07:37:17.217Z,6.77
2023-05-15T07:40:20.466Z,6.10
2023-05-15T07:43:09.010Z,6.20
2023-05-15T07:45:59.872Z,6.73
2023-05-15T07:48:47.553Z,6.40
2023-05-15T07:51:34.909Z,6.10
2023-05-15T07:54:22.133Z,6.30
2023-05-15T07:57:10.444Z,6.57
2023-05-15T07:59:58.152Z,7.00
2023-05-15T08:02:46.494Z,7.00
2023-05-15T08:05:33.867Z,6.83
2023-05-15T08:08:21.421Z,7.10
2023-05-15T08:11:12.177Z,7.60
2023-05-15T08:13:59.481Z,6.80
2023-05-15T08:16:46.722Z,6.83
2023-05-15T08:19:34.227Z,7.77
2023-05-15T08:22:24.693Z,7.97
2023-05-15T08:25:14.591Z,6.97
2023-05-15T08:28:02.874Z,7.53
2023-05-15T08:30:50.100Z,7.00
2023-05-15T08:33:37.272Z,7.10
2023-05-15T08:36:24.557Z,6.67
2023-05-15T08:39:17.917Z,7.03
2023-05-15T08:42:15.427Z,7.27
2023-05-15T08:45:03.417Z,6.80
2023-05-15T08:47:50.836Z,7.07
2023-05-15T08:50:40.527Z,6.93
2023-05-15T08:53:30.336Z,6.83
2023-05-15T08:56:18.630Z,6.70
2023-05-15T08:59:06.479Z,7.30
2023-05-15T09:01:55.058Z,7.50
2023-05-15T09:04:42.625Z,7.70
2023-05-15T09:07:33.322Z,7.80
2023-05-15T09:13:31.532Z,7.63
2023-05-15T09:16:21.195Z,7.67
2023-05-15T09:19:09.130Z,8.27
2023-05-15T09:22:30.840Z,8.30
2023-05-15T09:25:40.162Z,8.77
2023-05-15T09:28:30.155Z,8.80
2023-05-15T09:31:20.749Z,9.43
2023-05-15T09:34:09.658Z,8.90
2023-05-15T09:36:57.044Z,8.50
2023-05-15T09:39:44.581Z,8.83
2023-05-15T09:42:35.229Z,8.63
2023-05-15T09:45:22.920Z,8.73
2023-05-15T09:48:12.062Z,9.37
2023-05-15T09:51:00.189Z,9.27
2023-05-15T09:53:52.896Z,9.23
2023-05-15T09:56:42.940Z,9.30
2023-05-15T09:59:30.081Z,9.10
2023-05-15T10:02:34.751Z,9.93
2023-05-15T10:05:41.610Z,9.90
2023-05-15T10:08:30.094Z,10.10
2023-05-15T10:11:18.433Z,9.43
2023-05-15T10:14:07.397Z,9.83
2023-05-15T10:16:56.909Z,9.40
2023-05-15T10:19:57.233Z,9.77
2023-05-15T10:22:53.620Z,9.80
2023-05-15T10:26:03.930Z,10.50
2023-05-15T10:28:52.348Z,9.90
2023-05-15T10:31:40.469Z,10.10
2023-05-15T10:34:28.840Z,10.33
2023-05-15T10:37:16.748Z,9.93
2023-05-15T10:40:07.161Z,11.50
2023-05-15T10:42:55.671Z,11.00
2023-05-15T10:45:44.745Z,11.20
2023-05-15T10:48:33.518Z,10.90
2023-05-15T10:51:28.640Z,11.70
2023-05-15T10:54:15.813Z,11.80
2023-05-15T10:57:02.994Z,11.67
2023-05-15T10:59:51.047Z,11.53
2023-05-15T11:02:39.261Z,11.80
2023-05-15T11:05:26.916Z,11.47
2023-05-15T11:08:19.650Z,11.40
2023-05-15T11:11:06.769Z,12.33
2023-05-15T11:14:05.779Z,11.87
2023-05-15T11:16:53.078Z,11.77
2023-05-15T11:19:55.739Z,12.50
2023-05-15T11:22:42.932Z,11.27
2023-05-15T11:25:34.010Z,11.63
2023-05-15T11:28:25.958Z,12.10
2023-05-15T11:31:13.341Z,11.73
2023-05-15T11:34:05.726Z,11.67
2023-05-15T11:36:52.844Z,12.53
2023-05-15T11:39:41.044Z,12.47
2023-05-15T11:42:28.506Z,12.70
2023-05-15T11:45:15.671Z,12.70
2023-05-15T11:48:05.946Z,12.83
2023-05-15T11:50:54.013Z,12.83
2023-05-15T11:53:41.993Z,12.80
2023-05-15T11:56:29.250Z,13.17
2023-05-15T11:59:16.441Z,12.63
2023-05-15T12:02:06.286Z,12.97
2023-05-15T12:04:53.392Z,13.60
2023-05-15T12:07:44.429Z,13.10
2023-05-15T12:10:31.643Z,13.13
2023-05-15T12:13:18.996Z,14.13
2023-05-15T12:16:06.928Z,13.53
2023-05-15T12:18:56.460Z,14.07
2023-05-15T12:21:46.866Z,13.90
2023-05-15T12:24:37.317Z,14.37
2023-05-15T12:27:24.782Z,13.87
2023-05-15T12:30:14.039Z,14.80
2023-05-15T12:33:03.554Z,14.10
2023-05-15T12:35:55.324Z,13.77
2023-05-15T12:38:43.988Z,15.10
2023-05-15T12:41:32.223Z,15.60
2023-05-15T12:44:19.370Z,15.27
2023-05-15T12:47:07.887Z,14.90
2023-05-15T12:49:58.062Z,15.33
2023-05-15T12:52:47.985Z,15.60
2023-05-15T12:55:36.671Z,14.77
2023-05-15T12:58:25.206Z,16.30
2023-05-15T13:01:12.825Z,15.73
2023-05-15T13:04:00.588Z,16.73
2023-05-15T13:06:49.456Z,16.67
2023-05-15T13:09:37.673Z,14.43
2023-05-15T13:12:24.768Z,16.17
2023-05-15T13:15:26.228Z,16.80
2023-05-15T13:18:14.978Z,16.97
2023-05-15T13:21:02.217Z,17.03
2023-05-15T13:23:50.034Z,16.33
2023-05-15T13:26:37.276Z,16.93
2023-05-15T13:29:24.410Z,15.77
2023-05-15T13:32:11.485Z,15.87
2023-05-15T13:34:58.832Z,15.40
2023-05-15T13:37:47.074Z,16.13
2023-05-15T13:40:36.476Z,15.63
2023-05-15T13:43:25.153Z,15.63
2023-05-15T13:46:13.753Z,16.53
2023-05-15T13:49:01.102Z,16.07
2023-05-15T13:51:48.259Z,15.90
2023-05-15T13:54:35.368Z,14.90
2023-05-15T13:57:22.873Z,14.20
2023-05-15T14:00:13.970Z,14.07
2023-05-15T14:03:01.295Z,13.97
2023-05-15T14:05:48.477Z,12.40
2023-05-15T14:08:35.858Z,13.03
2023-05-15T14:11:23.086Z,12.13
2023-05-15T14:14:10.332Z,12.17
2023-05-15T14:16:57.686Z,12.27
2023-05-15T14:19:45.054Z,12.87
2023-05-15T14:22:32.409Z,12.90
2023-05-15T14:25:19.629Z,12.40
2023-05-15T14:28:06.752Z,12.13
2023-05-15T14:30:54.023Z,13.30
2023-05-15T14:33:41.411Z,12.23
2023-05-15T14:36:28.617Z,13.47
2023-05-15T14:39:16.097Z,13.13
2023-05-15T14:42:03.212Z,14.00
2023-05-15T14:45:17.424Z,13.37
2023-05-15T14:48:04.783Z,12.97
2023-05-15T14:50:52.710Z,13.27
2023-05-15T14:53:54.996Z,13.33
2023-05-15T14:56:57.507Z,13.00
2023-05-15T14:59:47.523Z,13.47
2023-05-15T15:02:39.152Z,13.50
2023-05-15T15:05:26.381Z,13.50
2023-05-15T15:08:13.722Z,13.27
2023-05-15T15:11:01.769Z,13.37
2023-05-15T15:13:48.929Z,13.70
2023-05-15T15:16:36.184Z,14.60
2023-05-15T15:19:23.732Z,14.40
2023-05-15T15:22:11.136Z,14.07
2023-05-15T15:25:00.874Z,13.67
2023-05-15T15:27:49.090Z,13.40
2023-05-15T15:30:38.498Z,13.00
2023-05-15T15:33:27.944Z,13.13
2023-05-15T15:36:15.054Z,12.90
2023-05-15T15:39:02.262Z,12.60
2023-05-15T15:41:54.587Z,11.67
2023-05-15T15:44:42.737Z,11.87
2023-05-15T15:47:44.741Z,11.43
2023-05-15T15:50:32.072Z,10.60
2023-05-15T15:53:19.214Z,10.30
2023-05-15T15:56:07.432Z,9.23
2023-05-15T15:58:54.665Z,8.73
2023-05-15T16:01:42.066Z,8.07
2023-05-15T16:04:29.499Z,8.60
2023-05-15T16:07:16.810Z,9.10
2023-05-15T16:10:12.396Z,8.73
2023-05-15T16:13:00.170Z,8.53
2023-05-15T16:15:47.355Z,8.70
2023-05-15T16:18:35.477Z,8.73
2023-05-15T16:21:23.667Z,8.70
2023-05-15T16:24:10.895Z,8.57
2023-05-15T16:26:58.201Z,8.03
2023-05-15T16:29:45.897Z,7.67
2023-05-15T16:32:34.095Z,7.80
2023-05-15T16:35:22.331Z,8.00
2023-05-15T16:38:09.591Z,8.17
2023-05-15T16:40:57.149Z,8.00
2023-05-15T16:43:44.264Z,8.13
2023-05-15T16:46:31.658Z,8.10
2023-05-15T16:49:18.901Z,8.33
2023-05-15T16:52:06.233Z,7.57
2023-05-15T16:54:53.560Z,7.70
2023-05-15T16:57:40.912Z,8.23
2023-05-15T17:00:28.389Z,8.63
2023-05-15T17:03:17.525Z,8.07
2023-05-15T17:06:05.086Z,8.70
2023-05-15T17:08:52.260Z,8.30
2023-05-15T17:11:39.486Z,8.17
2023-05-15T17:14:26.646Z,8.13
2023-05-15T17:17:13.879Z,8.43
2023-05-15T17:20:02.620Z,8.90
2023-05-15T17:22:50.217Z,8.47
2023-05-15T17:25:37.437Z,8.90
2023-05-15T17:28:24.741Z,9.37
2023-05-15T17:31:11.931Z,9.47
2023-05-15T17:34:00.404Z,9.40
2023-05-15T17:36:47.511Z,9.53
2023-05-15T17:39:35.324Z,10.10
2023-05-15T17:42:23.950Z,10.27
2023-05-15T17:45:11.608Z,10.63
2023-05-15T17:48:03.684Z,10.90
2023-05-15T17:50:51.732Z,11.57
2023-05-15T17:53:39.030Z,11.00
2023-05-15T17:56:27.441Z,11.97
2023-05-15T17:59:14.692Z,11.53
2023-05-15T18:02:02.180Z,11.70
2023-05-15T18:04:49.400Z,12.07
2023-05-15T18:07:36.598Z,11.87
2023-05-15T18:10:23.878Z,11.50
2023-05-15T18:13:11.075Z,12.17
2023-05-15T18:15:58.319Z,11.97
2023-05-15T18:18:45.999Z,12.00
2023-05-15T18:21:34.590Z,12.17
2023-05-15T18:24:23.382Z,12.90
2023-05-15T18:27:10.796Z,11.87
2023-05-15T18:29:58.024Z,12.50
2023-05-15T18:32:45.322Z,11.70
2023-05-15T18:35:32.576Z,11.83
2023-05-15T18:38:19.842Z,12.70
2023-05-15T18:41:07.028Z,12.33
2023-05-15T18:43:54.181Z,12.20
2023-05-15T18:46:41.625Z,11.63
2023-05-15T18:49:29.757Z,11.60
2023-05-15T18:52:18.822Z,9.57
2023-05-15T18:55:06.855Z,8.13
2023-05-15T18:57:53.991Z,7.40
2023-05-15T19:00:41.227Z,7.00
2023-05-15T19:03:28.402Z,6.03
2023-05-15T19:06:19.889Z,4.90
2023-05-15T19:09:09.854Z,4.40
2023-05-15T19:11:58.232Z,4.07
2023-05-15T19:14:45.776Z,3.97
2023-05-15T19:17:33.867Z,4.07
2023-05-15T19:20:21.397Z,4.07
2023-05-15T19:23:09.730Z,4.50
2023-05-15T19:25:56.994Z,4.40
2023-05-15T19:28:44.259Z,4.40
2023-05-15T19:31:32.375Z,4.73
2023-05-15T19:34:19.750Z,5.10
2023-05-15T19:37:06.912Z,5.20
2023-05-15T19:39:54.222Z,5.57
2023-05-15T19:42:41.376Z,6.00
2023-05-15T19:45:30.815Z,6.53
2023-05-15T19:48:18.031Z,6.93
2023-05-15T19:51:05.158Z,6.47
2023-05-15T19:53:53.816Z,7.40
2023-05-15T19:56:42.043Z,7.33
2023-05-15T19:59:29.642Z,8.50
2023-05-15T20:02:17.088Z,8.90
2023-05-15T20:05:05.163Z,9.33
2023-05-15T20:07:53.347Z,8.90
2023-05-15T20:10:41.164Z,9.77
2023-05-15T20:13:28.471Z,10.17
2023-05-15T20:16:16.723Z,10.37
2023-05-15T20:19:04.144Z,10.20
2023-05-15T20:21:51.453Z,9.77
2023-05-15T20:24:38.708Z,10.40
2023-05-15T20:27:26.180Z,9.73
2023-05-15T20:30:13.404Z,9.33
2023-05-15T20:33:00.784Z,9.07
2023-05-15T20:35:51.092Z,9.37
2023-05-15T20:38:38.694Z,9.17
2023-05-15T20:41:25.882Z,9.20
2023-05-15T20:44:13.136Z,8.50
2023-05-15T20:47:00.457Z,8.43
2023-05-15T20:49:47.617Z,7.90
2023-05-15T20:52:34.786Z,7.77
2023-05-15T20:55:22.347Z,7.50
2023-05-15T20:58:09.527Z,7.87
2023-05-15T21:00:58.252Z,6.80
2023-05-15T21:03:45.622Z,7.30
2023-05-15T21:06:33.003Z,7.20
2023-05-15T21:09:20.273Z,7.00
2023-05-15T21:12:07.781Z,6.70
2023-05-15T21:14:55.037Z,6.70
2023-05-15T21:17:42.212Z,7.00
2023-05-15T21:20:29.759Z,6.40
2023-05-15T21:23:17.093Z,6.53
2023-05-15T21:26:04.384Z,6.30
2023-05-15T21:28:51.574Z,6.63
2023-05-15T21:31:38.870Z,6.10
2023-05-15T21:34:26.055Z,6.40
2023-05-15T21:37:13.160Z,5.83
2023-05-15T21:40:01.733Z,6.07
2023-05-15T21:42:48.863Z,5.20
2023-05-15T21:45:36.350Z,5.60
2023-05-15T21:48:23.717Z,5.27
2023-05-15T21:51:12.336Z,5.60
2023-05-15T21:53:59.451Z,5.53
2023-05-15T21:56:46.623Z,5.40
2023-05-15T21:59:33.730Z,5.27
2023-05-15T22:02:21.024Z,4.53
2023-05-15T22:05:08.554Z,4.73
2023-05-15T22:07:56.209Z,4.80
2023-05-15T22:10:43.454Z,5.13
2023-05-15T22:13:30.682Z,5.43
2023-05-15T22:16:19.338Z,5.03
2023-05-15T22:19:06.990Z,5.53
2023-05-15T22:21:55.533Z,5.33
2023-05-15T22:24:43.767Z,4.90
2023-05-15T22:27:30.870Z,5.17
2023-05-15T22:30:18.069Z,5.30
2023-05-15T22:33:06.022Z,5.40
2023-05-15T22:35:53.728Z,4.80
2023-05-15T22:38:41.300Z,5.60
2023-05-15T22:41:28.431Z,5.77
2023-05-15T22:44:16.808Z,5.40
2023-05-15T22:47:04.340Z,5.70
2023-05-15T22:49:51.688Z,5.10
2023-05-15T22:52:39.130Z,5.20
2023-05-15T22:55:27.932Z,5.00
2023-05-15T22:58:15.099Z,5.40
2023-05-15T23:01:02.333Z,5.17
2023-05-15T23:03:49.572Z,5.30
2023-05-15T23:06:36.979Z,5.70
2023-05-15T23:09:24.192Z,5.43
2023-05-15T23:12:11.335Z,5.47
2023-05-15T23:14:58.436Z,5.53
2023-05-15T23:17:45.625Z,5.50
2023-05-15T23:20:32.777Z,5.50
2023-05-15T23:23:20.034Z,5.93
2023-05-15T23:26:08.016Z,5.30
2023-05-15T23:28:55.413Z,5.90
2023-05-15T23:31:43.290Z,6.20
2023-05-15T23:34:30.737Z,5.60
2023-05-15T23:37:17.841Z,5.60
2023-05-15T23:40:06.116Z,5.87
2023-05-15T23:42:53.250Z,6.03
2023-05-15T23:45:40.835Z,5.77
2023-05-15T23:48:28.234Z,6.33
2023-05-15T23:51:15.781Z,6.80
2023-05-15T23:54:03.039Z,6.43
2023-05-15T23:56:50.229Z,6.70
2023-05-15T23:59:37.471Z,6.87
